sensor_id;sensor_type;location;lat;lon;timestamp;temperature;humidity
33460;DHT22;19795;53.160;6.612;2024-01-25T05:42:06;3.10;99.90
33460;DHT22;19795;53.160;6.612;2024-01-25T05:49:53;3.00;99.90
33460;DHT22;19795;53.160;6.612;2024-01-25T05:52:19;3.00;99.90
33460;DHT22;19795;53.160;6.612;2024-01-25T05:54:46;3.10;99.90
33460;DHT22;19795;53.160;6.612;2024-01-25T05:57:12;3.20;99.90
33460;DHT22;19795;53.160;6.612;2024-01-25T05:59:38;3.00;99.90
33460;DHT22;19795;53.160;6.612;2024-01-25T06:02:04;3.10;99.90
33460;DHT22;19795;53.160;6.612;2024-01-25T06:04:30;3.10;99.90
33460;DHT22;19795;53.160;6.612;2024-01-25T06:06:56;3.10;99.90
33460;DHT22;19795;53.160;6.612;2024-01-25T06:09:23;3.00;99.90
33460;DHT22;19795;53.160;6.612;2024-01-25T06:11:50;3.10;99.90
33460;DHT22;19795;53.160;6.612;2024-01-25T06:14:18;2.90;99.90
33460;DHT22;19795;53.160;6.612;2024-01-25T06:17:04;3.00;99.90
33460;DHT22;19795;53.160;6.612;2024-01-25T06:19:30;2.90;99.90
33460;DHT22;19795;53.160;6.612;2024-01-25T06:21:55;2.90;99.90
33460;DHT22;19795;53.160;6.612;2024-01-25T06:24:21;2.70;99.90
33460;DHT22;19795;53.160;6.612;2024-01-25T06:26:47;2.80;99.90
33460;DHT22;19795;53.160;6.612;2024-01-25T06:29:13;2.70;99.90
33460;DHT22;19795;53.160;6.612;2024-01-25T06:31:45;2.80;99.90
33460;DHT22;19795;53.160;6.612;2024-01-25T06:34:11;2.70;99.90
33460;DHT22;19795;53.160;6.612;2024-01-25T06:36:37;2.70;99.90
33460;DHT22;19795;53.160;6.612;2024-01-25T06:39:03;2.70;99.90
33460;DHT22;19795;53.160;6.612;2024-01-25T06:41:32;2.70;99.90
33460;DHT22;19795;53.160;6.612;2024-01-25T06:43:58;2.80;99.90
33460;DHT22;19795;53.160;6.612;2024-01-25T06:46:24;2.80;99.90
33460;DHT22;19795;53.160;6.612;2024-01-25T06:48:50;2.70;99.90
33460;DHT22;19795;53.160;6.612;2024-01-25T06:51:17;2.70;99.90
33460;DHT22;19795;53.160;6.612;2024-01-25T06:53:42;2.70;99.90
33460;DHT22;19795;53.160;6.612;2024-01-25T06:56:08;2.60;99.90
33460;DHT22;19795;53.160;6.612;2024-01-25T06:58:36;2.50;99.90
33460;DHT22;19795;53.160;6.612;2024-01-25T07:01:02;2.80;99.90
33460;DHT22;19795;53.160;6.612;2024-01-25T07:03:30;2.50;99.90
33460;DHT22;19795;53.160;6.612;2024-01-25T07:05:55;2.60;99.90
33460;DHT22;19795;53.160;6.612;2024-01-25T07:08:21;2.40;99.90
33460;DHT22;19795;53.160;6.612;2024-01-25T07:10:47;2.40;99.90
33460;DHT22;19795;53.160;6.612;2024-01-25T07:13:12;2.40;99.90
33460;DHT22;19795;53.160;6.612;2024-01-25T07:15:38;2.50;99.90
33460;DHT22;19795;53.160;6.612;2024-01-25T07:18:04;2.40;99.90
33460;DHT22;19795;53.160;6.612;2024-01-25T07:20:30;2.30;99.90
33460;DHT22;19795;53.160;6.612;2024-01-25T07:22:56;2.40;99.90
33460;DHT22;19795;53.160;6.612;2024-01-25T07:25:22;2.50;99.90
33460;DHT22;19795;53.160;6.612;2024-01-25T07:27:48;2.40;99.90
33460;DHT22;19795;53.160;6.612;2024-01-25T07:30:15;2.30;99.90
33460;DHT22;19795;53.160;6.612;2024-01-25T07:32:41;2.30;99.90
33460;DHT22;19795;53.160;6.612;2024-01-25T07:35:10;2.30;99.90
33460;DHT22;19795;53.160;6.612;2024-01-25T07:37:36;2.30;99.90
33460;DHT22;19795;53.160;6.612;2024-01-25T07:40:02;2.40;99.90
33460;DHT22;19795;53.160;6.612;2024-01-25T07:42:30;2.40;99.90
33460;DHT22;19795;53.160;6.612;2024-01-25T07:44:56;2.40;99.90
33460;DHT22;19795;53.160;6.612;2024-01-25T07:47:21;2.60;99.90
33460;DHT22;19795;53.160;6.612;2024-01-25T07:49:48;2.50;99.90
33460;DHT22;19795;53.160;6.612;2024-01-25T07:52:14;2.60;99.90
33460;DHT22;19795;53.160;6.612;2024-01-25T07:54:40;2.80;99.90
33460;DHT22;19795;53.160;6.612;2024-01-25T07:57:05;2.70;99.90
33460;DHT22;19795;53.160;6.612;2024-01-25T07:59:33;2.80;99.90
33460;DHT22;19795;53.160;6.612;2024-01-25T08:01:59;2.90;99.90
33460;DHT22;19795;53.160;6.612;2024-01-25T08:04:25;3.00;99.90
33460;DHT22;19795;53.160;6.612;2024-01-25T08:06:52;2.90;99.90
33460;DHT22;19795;53.160;6.612;2024-01-25T08:09:17;3.10;99.90
33460;DHT22;19795;53.160;6.612;2024-01-25T08:11:44;3.10;99.90
33460;DHT22;19795;53.160;6.612;2024-01-25T08:14:10;3.20;99.90
33460;DHT22;19795;53.160;6.612;2024-01-25T08:16:36;3.40;99.90
33460;DHT22;19795;53.160;6.612;2024-01-25T08:19:05;3.30;99.90
33460;DHT22;19795;53.160;6.612;2024-01-25T08:21:31;3.40;99.90
33460;DHT22;19795;53.160;6.612;2024-01-25T08:23:57;3.60;99.90
33460;DHT22;19795;53.160;6.612;2024-01-25T08:26:22;3.60;99.90
33460;DHT22;19795;53.160;6.612;2024-01-25T08:28:48;3.60;99.90
33460;DHT22;19795;53.160;6.612;2024-01-25T08:31:14;3.90;99.90
33460;DHT22;19795;53.160;6.612;2024-01-25T08:33:40;3.70;99.90
33460;DHT22;19795;53.160;6.612;2024-01-25T08:36:18;3.80;99.90
33460;DHT22;19795;53.160;6.612;2024-01-25T08:38:47;3.80;99.90
33460;DHT22;19795;53.160;6.612;2024-01-25T08:41:13;4.00;99.90
33460;DHT22;19795;53.160;6.612;2024-01-25T08:43:40;4.10;99.90
33460;DHT22;19795;53.160;6.612;2024-01-25T08:46:06;4.00;99.90
33460;DHT22;19795;53.160;6.612;2024-01-25T08:48:32;4.10;99.90
33460;DHT22;19795;53.160;6.612;2024-01-25T08:50:58;4.20;99.90
33460;DHT22;19795;53.160;6.612;2024-01-25T08:53:23;4.30;99.90
33460;DHT22;19795;53.160;6.612;2024-01-25T08:55:53;4.50;99.90
33460;DHT22;19795;53.160;6.612;2024-01-25T08:58:19;4.50;99.90
33460;DHT22;19795;53.160;6.612;2024-01-25T09:00:47;4.60;99.90
33460;DHT22;19795;53.160;6.612;2024-01-25T09:03:14;4.60;99.90
33460;DHT22;19795;53.160;6.612;2024-01-25T09:05:40;4.70;99.90
33460;DHT22;19795;53.160;6.612;2024-01-25T09:08:11;4.80;99.90
33460;DHT22;19795;53.160;6.612;2024-01-25T09:10:38;4.90;99.90
33460;DHT22;19795;53.160;6.612;2024-01-25T09:13:04;4.80;99.90
33460;DHT22;19795;53.160;6.612;2024-01-25T09:15:30;5.00;99.90
33460;DHT22;19795;53.160;6.612;2024-01-25T09:17:55;4.90;99.90
33460;DHT22;19795;53.160;6.612;2024-01-25T09:20:21;5.00;99.90
33460;DHT22;19795;53.160;6.612;2024-01-25T09:22:47;5.10;99.90
33460;DHT22;19795;53.160;6.612;2024-01-25T09:25:13;5.10;99.90
33460;DHT22;19795;53.160;6.612;2024-01-25T09:27:39;5.30;99.90
33460;DHT22;19795;53.160;6.612;2024-01-25T09:30:05;5.20;99.90
33460;DHT22;19795;53.160;6.612;2024-01-25T09:32:31;5.30;99.90
33460;DHT22;19795;53.160;6.612;2024-01-25T09:34:57;5.40;99.90
33460;DHT22;19795;53.160;6.612;2024-01-25T09:37:23;5.60;99.90
33460;DHT22;19795;53.160;6.612;2024-01-25T09:39:50;5.50;99.90
33460;DHT22;19795;53.160;6.612;2024-01-25T09:42:21;5.50;99.90
33460;DHT22;19795;53.160;6.612;2024-01-25T09:44:47;5.50;99.90
33460;DHT22;19795;53.160;6.612;2024-01-25T09:47:13;5.50;99.90
33460;DHT22;19795;53.160;6.612;2024-01-25T09:49:39;5.50;99.90
33460;DHT22;19795;53.160;6.612;2024-01-25T09:52:05;5.50;99.90
33460;DHT22;19795;53.160;6.612;2024-01-25T09:54:34;5.60;99.90
33460;DHT22;19795;53.160;6.612;2024-01-25T09:57:11;5.60;99.90
33460;DHT22;19795;53.160;6.612;2024-01-25T09:59:39;5.70;99.90
33460;DHT22;19795;53.160;6.612;2024-01-25T10:02:04;5.70;99.90
33460;DHT22;19795;53.160;6.612;2024-01-25T10:04:30;5.80;99.90
33460;DHT22;19795;53.160;6.612;2024-01-25T10:06:56;5.80;99.90
33460;DHT22;19795;53.160;6.612;2024-01-25T10:09:22;5.90;99.90
33460;DHT22;19795;53.160;6.612;2024-01-25T10:11:49;5.90;99.90
33460;DHT22;19795;53.160;6.612;2024-01-25T10:14:14;6.00;99.90
33460;DHT22;19795;53.160;6.612;2024-01-25T10:16:40;6.00;99.90
33460;DHT22;19795;53.160;6.612;2024-01-25T10:19:06;6.10;99.90
33460;DHT22;19795;53.160;6.612;2024-01-25T10:21:34;6.00;99.90
33460;DHT22;19795;53.160;6.612;2024-01-25T10:24:01;6.00;99.90
33460;DHT22;19795;53.160;6.612;2024-01-25T10:26:27;6.00;99.90
33460;DHT22;19795;53.160;6.612;2024-01-25T10:28:54;6.10;99.90
33460;DHT22;19795;53.160;6.612;2024-01-25T10:31:23;6.20;99.90
33460;DHT22;19795;53.160;6.612;2024-01-25T10:33:52;6.10;99.90
33460;DHT22;19795;53.160;6.612;2024-01-25T10:36:21;6.00;99.90
33460;DHT22;19795;53.160;6.612;2024-01-25T10:38:48;6.00;99.90
33460;DHT22;19795;53.160;6.612;2024-01-25T10:41:15;6.00;99.90
33460;DHT22;19795;53.160;6.612;2024-01-25T10:43:41;6.00;99.90
33460;DHT22;19795;53.160;6.612;2024-01-25T10:46:07;6.00;99.90
33460;DHT22;19795;53.160;6.612;2024-01-25T10:48:34;6.30;99.90
33460;DHT22;19795;53.160;6.612;2024-01-25T10:51:01;6.30;99.90
33460;DHT22;19795;53.160;6.612;2024-01-25T10:53:33;6.30;99.90
33460;DHT22;19795;53.160;6.612;2024-01-25T10:56:00;6.50;99.90
33460;DHT22;19795;53.160;6.612;2024-01-25T10:58:35;6.70;99.90
33460;DHT22;19795;53.160;6.612;2024-01-25T11:01:01;6.80;99.90
33460;DHT22;19795;53.160;6.612;2024-01-25T11:03:29;6.90;99.90
33460;DHT22;19795;53.160;6.612;2024-01-25T11:06:09;6.90;99.90
33460;DHT22;19795;53.160;6.612;2024-01-25T11:08:36;7.00;99.90
33460;DHT22;19795;53.160;6.612;2024-01-25T11:11:06;7.10;99.90
33460;DHT22;19795;53.160;6.612;2024-01-25T11:13:32;7.20;99.90
33460;DHT22;19795;53.160;6.612;2024-01-25T11:15:58;7.10;99.90
33460;DHT22;19795;53.160;6.612;2024-01-25T11:18:27;7.10;99.90
33460;DHT22;19795;53.160;6.612;2024-01-25T11:20:53;7.10;99.90
33460;DHT22;19795;53.160;6.612;2024-01-25T11:23:19;7.20;99.90
33460;DHT22;19795;53.160;6.612;2024-01-25T11:25:46;7.10;99.90
33460;DHT22;19795;53.160;6.612;2024-01-25T11:28:14;7.40;99.90
33460;DHT22;19795;53.160;6.612;2024-01-25T11:30:42;7.30;99.90
33460;DHT22;19795;53.160;6.612;2024-01-25T11:33:08;7.50;99.90
33460;DHT22;19795;53.160;6.612;2024-01-25T11:35:34;7.60;99.90
33460;DHT22;19795;53.160;6.612;2024-01-25T11:38:00;7.80;99.90
33460;DHT22;19795;53.160;6.612;2024-01-25T11:40:26;7.90;99.90
33460;DHT22;19795;53.160;6.612;2024-01-25T11:42:54;7.80;99.90
33460;DHT22;19795;53.160;6.612;2024-01-25T11:45:20;7.80;99.90
33460;DHT22;19795;53.160;6.612;2024-01-25T11:47:46;7.80;99.90
33460;DHT22;19795;53.160;6.612;2024-01-25T11:50:12;7.90;99.90
33460;DHT22;19795;53.160;6.612;2024-01-25T11:52:39;7.90;99.90
33460;DHT22;19795;53.160;6.612;2024-01-25T11:55:07;7.90;99.90
33460;DHT22;19795;53.160;6.612;2024-01-25T11:57:42;7.80;99.90
33460;DHT22;19795;53.160;6.612;2024-01-25T12:00:13;7.90;99.90
33460;DHT22;19795;53.160;6.612;2024-01-25T12:02:40;7.90;99.90
33460;DHT22;19795;53.160;6.612;2024-01-25T12:05:06;8.10;99.90
33460;DHT22;19795;53.160;6.612;2024-01-25T12:07:32;8.10;99.90
33460;DHT22;19795;53.160;6.612;2024-01-25T12:10:09;8.20;99.90
33460;DHT22;19795;53.160;6.612;2024-01-25T12:12:38;8.30;99.90
33460;DHT22;19795;53.160;6.612;2024-01-25T12:18:54;8.50;99.90
33460;DHT22;19795;53.160;6.612;2024-01-25T12:24:57;8.50;99.90
33460;DHT22;19795;53.160;6.612;2024-01-25T12:34:31;8.60;99.90
33460;DHT22;19795;53.160;6.612;2024-01-25T12:40:43;8.80;99.90
33460;DHT22;19795;53.160;6.612;2024-01-25T12:46:45;9.30;99.90
33460;DHT22;19795;53.160;6.612;2024-01-25T12:49:14;9.30;99.90
33460;DHT22;19795;53.160;6.612;2024-01-25T12:51:43;9.20;99.90
33460;DHT22;19795;53.160;6.612;2024-01-25T12:54:09;9.30;99.90
33460;DHT22;19795;53.160;6.612;2024-01-25T12:56:37;9.30;99.90
33460;DHT22;19795;53.160;6.612;2024-01-25T12:59:03;9.20;99.90
33460;DHT22;19795;53.160;6.612;2024-01-25T13:01:29;9.00;99.90
33460;DHT22;19795;53.160;6.612;2024-01-25T13:04:15;8.90;99.90
33460;DHT22;19795;53.160;6.612;2024-01-25T13:06:48;8.80;99.90
33460;DHT22;19795;53.160;6.612;2024-01-25T13:09:20;8.80;99.90
33460;DHT22;19795;53.160;6.612;2024-01-25T13:11:54;8.70;99.90
33460;DHT22;19795;53.160;6.612;2024-01-25T13:14:20;8.70;99.90
33460;DHT22;19795;53.160;6.612;2024-01-25T13:16:48;8.70;99.90
33460;DHT22;19795;53.160;6.612;2024-01-25T13:19:14;8.70;99.90
33460;DHT22;19795;53.160;6.612;2024-01-25T13:21:45;8.70;99.90
33460;DHT22;19795;53.160;6.612;2024-01-25T13:24:19;8.70;99.90
33460;DHT22;19795;53.160;6.612;2024-01-25T13:26:44;8.70;99.90
33460;DHT22;19795;53.160;6.612;2024-01-25T13:29:10;8.70;99.90
33460;DHT22;19795;53.160;6.612;2024-01-25T13:31:40;8.70;99.90
33460;DHT22;19795;53.160;6.612;2024-01-25T13:34:08;8.80;99.90
33460;DHT22;19795;53.160;6.612;2024-01-25T13:36:36;8.70;99.90
33460;DHT22;19795;53.160;6.612;2024-01-25T13:39:01;8.90;99.90
33460;DHT22;19795;53.160;6.612;2024-01-25T13:41:29;9.00;99.90
33460;DHT22;19795;53.160;6.612;2024-01-25T13:43:55;9.20;99.90
33460;DHT22;19795;53.160;6.612;2024-01-25T13:46:20;9.10;99.90
33460;DHT22;19795;53.160;6.612;2024-01-25T13:48:49;9.10;99.90
33460;DHT22;19795;53.160;6.612;2024-01-25T13:51:14;9.10;99.90
33460;DHT22;19795;53.160;6.612;2024-01-25T13:53:40;9.10;99.90
33460;DHT22;19795;53.160;6.612;2024-01-25T13:56:06;9.10;99.90
33460;DHT22;19795;53.160;6.612;2024-01-25T13:58:31;8.80;99.90
33460;DHT22;19795;53.160;6.612;2024-01-25T14:00:57;8.60;99.90
33460;DHT22;19795;53.160;6.612;2024-01-25T14:03:26;8.50;99.90
33460;DHT22;19795;53.160;6.612;2024-01-25T14:05:51;8.70;99.90
33460;DHT22;19795;53.160;6.612;2024-01-25T14:08:22;8.70;99.90
33460;DHT22;19795;53.160;6.612;2024-01-25T14:10:47;8.60;99.90
33460;DHT22;19795;53.160;6.612;2024-01-25T14:13:23;8.60;99.90
33460;DHT22;19795;53.160;6.612;2024-01-25T14:15:49;8.70;99.90
33460;DHT22;19795;53.160;6.612;2024-01-25T14:18:15;8.70;99.90
33460;DHT22;19795;53.160;6.612;2024-01-25T14:20:41;8.70;99.90
33460;DHT22;19795;53.160;6.612;2024-01-25T14:23:09;8.50;99.90
33460;DHT22;19795;53.160;6.612;2024-01-25T14:25:38;8.30;99.90
33460;DHT22;19795;53.160;6.612;2024-01-25T14:28:30;8.20;99.90
33460;DHT22;19795;53.160;6.612;2024-01-25T14:31:29;8.10;99.90
33460;DHT22;19795;53.160;6.612;2024-01-25T14:34:15;7.90;99.90
33460;DHT22;19795;53.160;6.612;2024-01-25T14:56:02;7.30;99.90
33460;DHT22;19795;53.160;6.612;2024-01-25T14:58:27;7.10;99.90
33460;DHT22;19795;53.160;6.612;2024-01-25T15:00:54;7.00;99.90
33460;DHT22;19795;53.160;6.612;2024-01-25T15:03:20;7.00;99.90
33460;DHT22;19795;53.160;6.612;2024-01-25T15:05:46;6.80;99.90
33460;DHT22;19795;53.160;6.612;2024-01-25T15:08:14;6.80;99.90
33460;DHT22;19795;53.160;6.612;2024-01-25T15:10:40;6.90;99.90
33460;DHT22;19795;53.160;6.612;2024-01-25T15:13:06;6.70;99.90
33460;DHT22;19795;53.160;6.612;2024-01-25T15:15:32;6.70;99.90
33460;DHT22;19795;53.160;6.612;2024-01-25T15:17:58;6.70;99.90
33460;DHT22;19795;53.160;6.612;2024-01-25T15:20:24;6.70;99.90
33460;DHT22;19795;53.160;6.612;2024-01-25T15:22:50;6.70;99.90
33460;DHT22;19795;53.160;6.612;2024-01-25T15:25:16;6.90;99.90
33460;DHT22;19795;53.160;6.612;2024-01-25T15:27:43;6.80;99.90
33460;DHT22;19795;53.160;6.612;2024-01-25T15:30:09;6.70;99.90
33460;DHT22;19795;53.160;6.612;2024-01-25T15:32:36;6.70;99.90
33460;DHT22;19795;53.160;6.612;2024-01-25T15:35:02;6.70;99.90
33460;DHT22;19795;53.160;6.612;2024-01-25T15:37:28;6.60;99.90
33460;DHT22;19795;53.160;6.612;2024-01-25T15:39:54;6.60;99.90
33460;DHT22;19795;53.160;6.612;2024-01-25T15:42:20;6.70;99.90
33460;DHT22;19795;53.160;6.612;2024-01-25T15:44:46;6.70;99.90
33460;DHT22;19795;53.160;6.612;2024-01-25T15:47:11;6.70;99.90
33460;DHT22;19795;53.160;6.612;2024-01-25T15:49:38;6.70;99.90
33460;DHT22;19795;53.160;6.612;2024-01-25T15:52:05;6.80;99.90
33460;DHT22;19795;53.160;6.612;2024-01-25T15:54:30;6.80;99.90
33460;DHT22;19795;53.160;6.612;2024-01-25T15:56:56;6.90;99.90
33460;DHT22;19795;53.160;6.612;2024-01-25T15:59:22;6.80;99.90
33460;DHT22;19795;53.160;6.612;2024-01-25T16:01:48;6.90;99.90
33460;DHT22;19795;53.160;6.612;2024-01-25T16:04:14;7.00;99.90
33460;DHT22;19795;53.160;6.612;2024-01-25T16:06:40;7.00;99.90
33460;DHT22;19795;53.160;6.612;2024-01-25T16:09:06;7.00;99.90
33460;DHT22;19795;53.160;6.612;2024-01-25T16:11:32;7.00;99.90
33460;DHT22;19795;53.160;6.612;2024-01-25T16:13:57;7.00;99.90
33460;DHT22;19795;53.160;6.612;2024-01-25T16:16:23;6.90;99.90
33460;DHT22;19795;53.160;6.612;2024-01-25T16:18:49;7.00;99.90
33460;DHT22;19795;53.160;6.612;2024-01-25T16:21:15;7.00;99.90
33460;DHT22;19795;53.160;6.612;2024-01-25T16:23:41;7.00;99.90
33460;DHT22;19795;53.160;6.612;2024-01-25T16:26:07;7.00;99.90
33460;DHT22;19795;53.160;6.612;2024-01-25T16:28:33;7.00;99.90
33460;DHT22;19795;53.160;6.612;2024-01-25T16:30:58;7.00;99.90
33460;DHT22;19795;53.160;6.612;2024-01-25T16:33:24;7.10;99.90
33460;DHT22;19795;53.160;6.612;2024-01-25T16:35:50;7.00;99.90
33460;DHT22;19795;53.160;6.612;2024-01-25T16:38:16;7.00;99.90
33460;DHT22;19795;53.160;6.612;2024-01-25T16:40:42;7.00;99.90
33460;DHT22;19795;53.160;6.612;2024-01-25T16:43:07;7.00;99.90
33460;DHT22;19795;53.160;6.612;2024-01-25T16:45:34;7.00;99.90
33460;DHT22;19795;53.160;6.612;2024-01-25T16:47:59;7.00;99.90
33460;DHT22;19795;53.160;6.612;2024-01-25T16:50:25;7.10;99.90
33460;DHT22;19795;53.160;6.612;2024-01-25T16:52:51;7.00;99.90
33460;DHT22;19795;53.160;6.612;2024-01-25T16:55:17;7.10;99.90
33460;DHT22;19795;53.160;6.612;2024-01-25T16:57:43;7.10;99.90
33460;DHT22;19795;53.160;6.612;2024-01-25T17:00:09;7.10;99.90
33460;DHT22;19795;53.160;6.612;2024-01-25T17:02:34;7.10;99.90
33460;DHT22;19795;53.160;6.612;2024-01-25T17:05:00;7.10;99.90
33460;DHT22;19795;53.160;6.612;2024-01-25T17:07:26;7.10;99.90
33460;DHT22;19795;53.160;6.612;2024-01-25T17:09:52;7.10;99.90
33460;DHT22;19795;53.160;6.612;2024-01-25T17:12:17;7.20;99.90
33460;DHT22;19795;53.160;6.612;2024-01-25T17:14:43;7.20;99.90
33460;DHT22;19795;53.160;6.612;2024-01-25T17:17:09;7.20;99.90
33460;DHT22;19795;53.160;6.612;2024-01-25T17:19:35;7.30;99.90
33460;DHT22;19795;53.160;6.612;2024-01-25T17:22:01;7.10;99.90
33460;DHT22;19795;53.160;6.612;2024-01-25T17:24:27;7.20;99.90
33460;DHT22;19795;53.160;6.612;2024-01-25T17:26:53;7.00;99.90
33460;DHT22;19795;53.160;6.612;2024-01-25T17:29:18;7.10;99.90
33460;DHT22;19795;53.160;6.612;2024-01-25T17:31:44;6.90;99.90
33460;DHT22;19795;53.160;6.612;2024-01-25T17:34:10;6.70;99.90
33460;DHT22;19795;53.160;6.612;2024-01-25T17:36:35;6.80;99.90
33460;DHT22;19795;53.160;6.612;2024-01-25T17:39:01;6.70;99.90
33460;DHT22;19795;53.160;6.612;2024-01-25T17:41:29;6.90;99.90
33460;DHT22;19795;53.160;6.612;2024-01-25T17:43:55;6.60;99.90
33460;DHT22;19795;53.160;6.612;2024-01-25T17:46:20;6.70;99.90
33460;DHT22;19795;53.160;6.612;2024-01-25T17:48:46;6.60;99.90
33460;DHT22;19795;53.160;6.612;2024-01-25T17:51:12;6.70;99.90
33460;DHT22;19795;53.160;6.612;2024-01-25T17:53:38;6.50;99.90
33460;DHT22;19795;53.160;6.612;2024-01-25T17:56:04;6.70;99.90
33460;DHT22;19795;53.160;6.612;2024-01-25T17:58:30;6.50;99.90
33460;DHT22;19795;53.160;6.612;2024-01-25T18:00:56;6.50;99.90
33460;DHT22;19795;53.160;6.612;2024-01-25T18:03:22;6.60;99.90
33460;DHT22;19795;53.160;6.612;2024-01-25T18:05:47;6.50;99.90
33460;DHT22;19795;53.160;6.612;2024-01-25T18:08:13;6.60;99.90
33460;DHT22;19795;53.160;6.612;2024-01-25T18:10:39;6.60;99.90
33460;DHT22;19795;53.160;6.612;2024-01-25T18:13:05;6.60;99.90
33460;DHT22;19795;53.160;6.612;2024-01-25T18:15:30;6.60;99.90
33460;DHT22;19795;53.160;6.612;2024-01-25T18:17:59;6.60;99.90
33460;DHT22;19795;53.160;6.612;2024-01-25T18:20:25;6.60;99.90
33460;DHT22;19795;53.160;6.612;2024-01-25T18:22:50;6.50;99.90
33460;DHT22;19795;53.160;6.612;2024-01-25T18:25:16;6.50;99.90
33460;DHT22;19795;53.160;6.612;2024-01-25T18:27:42;6.50;99.90
33460;DHT22;19795;53.160;6.612;2024-01-25T18:30:08;6.50;99.90
33460;DHT22;19795;53.160;6.612;2024-01-25T18:32:34;6.50;99.90
33460;DHT22;19795;53.160;6.612;2024-01-25T18:35:00;6.40;99.90
33460;DHT22;19795;53.160;6.612;2024-01-25T18:37:25;6.40;99.90
33460;DHT22;19795;53.160;6.612;2024-01-25T18:39:51;6.40;99.90
33460;DHT22;19795;53.160;6.612;2024-01-25T18:42:17;6.50;99.90
33460;DHT22;19795;53.160;6.612;2024-01-25T18:44:42;6.50;99.90
33460;DHT22;19795;53.160;6.612;2024-01-25T18:47:08;6.50;99.90
33460;DHT22;19795;53.160;6.612;2024-01-25T18:49:36;6.40;99.90
33460;DHT22;19795;53.160;6.612;2024-01-25T18:52:03;6.50;99.90
33460;DHT22;19795;53.160;6.612;2024-01-25T18:54:29;6.50;99.90
33460;DHT22;19795;53.160;6.612;2024-01-25T18:56:56;6.50;99.90
33460;DHT22;19795;53.160;6.612;2024-01-25T18:59:22;6.50;99.90
33460;DHT22;19795;53.160;6.612;2024-01-25T19:01:53;6.60;99.90
33460;DHT22;19795;53.160;6.612;2024-01-25T19:04:21;6.60;99.90
33460;DHT22;19795;53.160;6.612;2024-01-25T19:06:53;6.50;99.90
33460;DHT22;19795;53.160;6.612;2024-01-25T19:09:26;6.50;99.90
33460;DHT22;19795;53.160;6.612;2024-01-25T19:11:52;6.50;99.90
33460;DHT22;19795;53.160;6.612;2024-01-25T19:14:19;6.60;99.90
33460;DHT22;19795;53.160;6.612;2024-01-25T19:16:45;6.50;99.90
33460;DHT22;19795;53.160;6.612;2024-01-25T19:19:11;6.60;99.90
33460;DHT22;19795;53.160;6.612;2024-01-25T19:21:37;6.50;99.90
33460;DHT22;19795;53.160;6.612;2024-01-25T19:24:06;6.60;99.90
33460;DHT22;19795;53.160;6.612;2024-01-25T19:26:31;6.50;99.90
33460;DHT22;19795;53.160;6.612;2024-01-25T19:28:58;6.50;99.90
33460;DHT22;19795;53.160;6.612;2024-01-25T19:31:23;6.60;99.90
33460;DHT22;19795;53.160;6.612;2024-01-25T19:33:50;6.60;99.90
33460;DHT22;19795;53.160;6.612;2024-01-25T19:36:16;6.60;99.90
33460;DHT22;19795;53.160;6.612;2024-01-25T19:38:42;6.60;99.90
33460;DHT22;19795;53.160;6.612;2024-01-25T19:41:08;6.60;99.90
33460;DHT22;19795;53.160;6.612;2024-01-25T19:43:34;6.60;99.90
33460;DHT22;19795;53.160;6.612;2024-01-25T19:45:59;6.60;99.90
33460;DHT22;19795;53.160;6.612;2024-01-25T19:48:26;6.70;99.90
33460;DHT22;19795;53.160;6.612;2024-01-25T19:50:52;6.80;99.90
33460;DHT22;19795;53.160;6.612;2024-01-25T19:53:18;6.70;99.90
33460;DHT22;19795;53.160;6.612;2024-01-25T19:55:44;6.70;99.90
